createdAt,value
2023-08-08T00:04:56.732Z,100768.81
2023-08-08T00:15:01.226Z,100769.53
2023-08-08T00:25:05.133Z,100762.84
2023-08-08T00:35:10.574Z,100744.22
2023-08-08T00:45:13.617Z,100739.16
2023-08-08T00:55:18.732Z,100736.00
2023-08-08T01:05:22.599Z,100736.19
2023-08-08T01:15:28.589Z,100733.34
2023-08-08T01:25:33.622Z,100733.50
2023-08-08T01:35:41.505Z,100731.50
2023-08-08T01:45:47.009Z,100717.44
2023-08-08T01:55:50.056Z,100717.94
2023-08-08T02:05:55.787Z,100720.94
2023-08-08T02:15:59.039Z,100716.81
2023-08-08T02:26:04.713Z,100712.59
2023-08-08T02:36:08.986Z,100709.94
2023-08-08T02:46:13.554Z,100697.25
2023-08-08T02:56:17.100Z,100695.13
2023-08-08T03:06:21.770Z,100681.41
2023-08-08T03:16:24.871Z,100669.22
2023-08-08T03:26:31.421Z,100650.91
2023-08-08T03:36:35.582Z,100637.84
2023-08-08T03:46:39.987Z,100637.31
2023-08-08T03:56:43.406Z,100639.34
2023-08-08T04:06:47.711Z,100641.34
2023-08-08T04:16:50.847Z,100642.78
2023-08-08T04:26:55.241Z,100650.50
2023-08-08T04:36:58.165Z,100657.44
2023-08-08T04:47:02.661Z,100650.53
2023-08-08T04:57:06.111Z,100658.94
2023-08-08T05:07:10.370Z,100643.44
2023-08-08T05:17:13.483Z,100641.09
2023-08-08T05:27:17.765Z,100644.72
2023-08-08T05:37:20.859Z,100640.34
2023-08-08T05:47:25.711Z,100642.44
2023-08-08T05:57:28.868Z,100642.78
2023-08-08T06:07:33.404Z,100644.97
2023-08-08T06:17:36.461Z,100657.06
2023-08-08T06:27:41.567Z,100665.84
2023-08-08T06:37:45.176Z,100665.28
2023-08-08T06:47:50.116Z,100671.75
2023-08-08T06:57:53.458Z,100662.41
2023-08-08T07:07:58.007Z,100667.28
2023-08-08T07:18:01.987Z,100647.59
2023-08-08T07:28:07.140Z,100636.19
2023-08-08T07:38:10.520Z,100639.53
2023-08-08T07:48:14.945Z,100624.97
2023-08-08T07:58:18.126Z,100623.81
2023-08-08T08:08:22.933Z,100642.91
2023-08-08T08:18:26.014Z,100639.75
2023-08-08T08:28:30.363Z,100641.22
2023-08-08T08:38:33.906Z,100632.38
2023-08-08T08:48:38.582Z,100632.66
2023-08-08T08:58:42.568Z,100636.78
2023-08-08T09:08:48.230Z,100626.59
2023-08-08T09:18:51.262Z,100632.03
2023-08-08T09:28:55.642Z,100627.13
2023-08-08T09:38:59.021Z,100630.44
2023-08-08T09:49:04.704Z,100636.59
2023-08-08T09:59:08.603Z,100636.69
2023-08-08T10:09:14.117Z,100636.72
2023-08-08T10:19:24.474Z,100648.06
2023-08-08T10:29:31.605Z,100635.28
2023-08-08T10:39:34.446Z,100645.28
2023-08-08T10:49:38.708Z,100632.94
2023-08-08T10:59:41.898Z,100620.28
2023-08-08T11:09:46.559Z,100632.94
2023-08-08T11:19:49.504Z,100616.34
2023-08-08T11:29:54.113Z,100634.91
2023-08-08T11:39:57.467Z,100625.88
2023-08-08T11:50:02.535Z,100612.72
2023-08-08T12:00:08.575Z,100610.94
2023-08-08T12:10:21.026Z,100604.41
2023-08-08T12:20:24.196Z,100605.44
2023-08-08T12:30:28.821Z,100595.19
2023-08-08T12:40:31.983Z,100601.25
2023-08-08T12:50:36.350Z,100608.19
2023-08-08T13:00:39.770Z,100618.91
2023-08-08T13:10:44.655Z,100623.31
2023-08-08T13:20:47.693Z,100619.94
2023-08-08T13:30:52.159Z,100602.63
2023-08-08T13:40:56.204Z,100608.03
2023-08-08T13:51:00.962Z,100610.34
2023-08-08T14:01:04.216Z,100618.41
2023-08-08T14:11:08.787Z,100609.91
2023-08-08T14:21:11.966Z,100621.16
2023-08-08T14:31:16.761Z,100613.50
2023-08-08T14:41:19.703Z,100613.78
2023-08-08T14:51:25.393Z,100631.19
2023-08-08T15:01:28.628Z,100617.69
2023-08-08T15:11:33.111Z,100627.47
2023-08-08T15:21:36.008Z,100628.56
2023-08-08T15:31:40.406Z,100612.09
2023-08-08T15:41:43.502Z,100624.34
2023-08-08T15:51:49.954Z,100627.50
2023-08-08T16:01:53.477Z,100614.06
2023-08-08T16:11:59.029Z,100610.25
2023-08-08T16:22:04.114Z,100630.56
2023-08-08T16:32:08.526Z,100611.91
2023-08-08T16:42:11.415Z,100629.44
2023-08-08T16:52:15.964Z,100625.06
2023-08-08T17:02:19.089Z,100626.31
2023-08-08T17:12:23.787Z,100630.38
2023-08-08T17:22:27.078Z,100615.13
2023-08-08T17:32:31.861Z,100607.81
2023-08-08T17:42:38.370Z,100593.19
2023-08-08T17:52:43.991Z,100586.31
2023-08-08T18:02:47.257Z,100580.78
2023-08-08T18:12:51.870Z,100568.66
2023-08-08T18:22:54.719Z,100570.63
2023-08-08T18:32:59.693Z,100578.28
2023-08-08T18:43:03.567Z,100597.38
2023-08-08T18:53:07.997Z,100593.41
2023-08-08T19:03:11.152Z,100605.22
2023-08-08T19:13:16.917Z,100597.59
2023-08-08T19:23:20.450Z,100599.56
2023-08-08T19:33:24.934Z,100604.25
2023-08-08T19:43:28.261Z,100587.78
2023-08-08T19:53:32.619Z,100577.91
2023-08-08T20:03:35.641Z,100594.00
2023-08-08T20:13:39.957Z,100580.97
2023-08-08T20:23:43.119Z,100574.41
2023-08-08T20:33:47.637Z,100565.28
2023-08-08T20:43:50.794Z,100564.28
2023-08-08T20:53:55.094Z,100554.28
2023-08-08T21:03:58.054Z,100545.09
2023-08-08T21:14:02.644Z,100557.56
2023-08-08T21:24:06.145Z,100559.06
2023-08-08T21:34:10.395Z,100542.38
2023-08-08T21:44:13.198Z,100527.22
2023-08-08T21:54:18.030Z,100517.31
2023-08-08T22:04:21.309Z,100509.03
2023-08-08T22:14:26.728Z,100479.00
2023-08-08T22:24:29.750Z,100491.06
2023-08-08T22:34:34.579Z,100480.03
2023-08-08T22:44:37.501Z,100468.28
2023-08-08T22:54:41.990Z,100458.00
2023-08-08T23:04:45.414Z,100435.25
2023-08-08T23:14:49.860Z,100431.31
2023-08-08T23:24:56.134Z,100429.66
2023-08-08T23:35:00.576Z,100419.06
2023-08-08T23:45:03.855Z,100419.69
2023-08-08T23:55:11.091Z,100435.78
